Stacja Pogody Warszawa Praga Północ 


Stacja Pogody
Warszawa Praga Północ

 Szerokość N 52° 15 '43"    Długość E 21° 01' 22"    Wysokość 89 m n.p.m.


Wschód Słońca 05:16 Górowanie Słońca 12:33 Zachód Słońca 19:51 byk
Data juliańska 2457139.697 Odległość Słońca 150504580 km Średn. kątowa Słońca 0,318°
Wschód Księżyca 11:56 Zachód Księżyca 02:04 Wiek Księżyca 8 dni Moon
Widoczność Księżyca 52,20% Odległość Księżyca 400237 km Średn. kątowa Księżyca 0,299°
Dzień krótszy od najdłuższego o: 02:13 Długość dnia 14:34 Imieniny Marzeny, Klaudiusza, Marii




Warunki pogodowe uaktualnione 26-04-2015, o godzinie 04:41
Temperatura 16.5 °C ↓ Temperatura odczuwalna 11.6 °C
Punkt rosy 5.1 °C Humidex 15.8 °C
Deszcz na godzinę 0.0 mm Wilgotność względna 47% ↑
Prędkość wiatru (średnia) 7 km/h → Prędkość wiatru (podmuch) 19 km/h
Kierunek wiatru SSE Skala Beaufort'a 4
Średni przepływ wiatru w ciągu ostatniej godziny 7 km
Ciśnienie względne  1007 hPa Trend ciśnienia stabilne
Ciśnienie bezwzględne  995 hPa Podstawa chmur 1475.2 m
METAR EPWA 260230Z 20004KT 170V240 CAVOK 14/06 Q1007 NOSIG





 a

Valid XHTML 1.0 Transitional Valid CSS!